createdAt,value
2023-03-16T00:43:10.644Z,216.03
2023-03-16T00:44:10.768Z,214.86
2023-03-16T00:45:10.874Z,208.62
2023-03-16T00:46:11.005Z,203.85
2023-03-16T00:47:11.111Z,200.25
2023-03-16T00:49:11.427Z,190.58
2023-03-16T00:50:11.573Z,186.86
2023-03-16T00:51:11.718Z,183.92
2023-03-16T01:50:20.734Z,148.51
2023-03-16T01:51:20.987Z,154.12
2023-03-16T01:52:21.089Z,160.43
2023-03-16T01:53:21.254Z,166.93
2023-03-16T01:54:21.379Z,168.84
2023-03-16T01:55:21.514Z,167.60
2023-03-16T01:56:21.684Z,164.46
2023-03-16T01:57:21.876Z,162.22
2023-03-16T01:58:21.976Z,159.63
2023-03-16T01:59:22.106Z,156.31
2023-03-16T02:00:22.259Z,154.30
2023-03-16T02:01:22.499Z,153.21
2023-03-16T02:02:22.599Z,151.06
2023-03-16T02:03:22.756Z,148.02
2023-03-16T02:04:23.032Z,145.51
2023-03-16T02:05:23.101Z,142.48
2023-03-16T02:06:23.344Z,140.56
2023-03-16T03:45:40.811Z,178.25
2023-03-16T03:46:41.005Z,176.46
2023-03-16T03:47:41.052Z,177.14
2023-03-16T03:48:41.216Z,174.68
2023-03-16T03:49:41.360Z,178.73
2023-03-16T03:50:41.460Z,186.47
2023-03-16T03:51:41.564Z,188.61
2023-03-16T03:52:41.656Z,184.71
2023-03-16T03:53:41.778Z,183.39
2023-03-16T03:54:41.925Z,175.22
2023-03-16T03:55:42.059Z,165.11
2023-03-16T03:56:42.206Z,164.01
2023-03-16T03:57:42.352Z,178.89
2023-03-16T03:58:42.500Z,193.58
2023-03-16T03:59:42.656Z,196.50
2023-03-16T04:00:42.769Z,199.98
2023-03-16T04:01:42.907Z,204.63
2023-03-16T04:02:43.204Z,204.60
2023-03-16T04:03:45.172Z,208.36
2023-03-16T04:04:43.227Z,211.95
2023-03-16T04:05:43.328Z,217.13
2023-03-16T04:06:43.456Z,212.71
2023-03-16T04:07:43.625Z,203.72
2023-03-16T04:08:43.780Z,196.65
2023-03-16T04:09:43.979Z,192.26
2023-03-16T04:10:44.108Z,185.83
2023-03-16T04:11:44.236Z,181.69
2023-03-16T04:12:44.374Z,174.84
2023-03-16T04:13:44.520Z,173.26
2023-03-16T04:14:44.670Z,171.04
2023-03-16T04:15:44.815Z,169.94
2023-03-16T04:16:45.015Z,169.79
2023-03-16T04:55:50.628Z,206.81
2023-03-16T04:56:50.748Z,196.95
2023-03-16T04:57:50.901Z,189.33
2023-03-16T06:01:00.752Z,213.22
2023-03-16T06:02:00.901Z,211.12
2023-03-16T06:03:01.084Z,203.54
2023-03-16T06:04:01.295Z,196.21
2023-03-16T06:05:01.389Z,193.03
2023-03-16T06:06:01.562Z,191.91
2023-03-16T06:07:01.716Z,191.56
2023-03-16T06:08:01.864Z,190.29
2023-03-16T06:09:02.027Z,192.06
2023-03-16T06:10:02.172Z,192.77
2023-03-16T06:42:07.230Z,282.70
2023-03-16T07:02:10.671Z,238.10
2023-03-16T07:03:10.814Z,241.74
2023-03-16T07:04:11.008Z,242.06
2023-03-16T07:05:11.110Z,242.48
2023-03-16T07:06:11.250Z,238.78
2023-03-16T07:07:11.419Z,232.70
2023-03-16T07:08:11.562Z,226.74
2023-03-16T07:09:11.715Z,220.74
2023-03-16T07:10:11.872Z,215.17
2023-03-16T07:11:12.092Z,212.37
2023-03-16T07:12:12.170Z,209.70
2023-03-16T07:13:12.302Z,206.70
2023-03-16T07:14:12.450Z,204.08
2023-03-16T07:15:12.605Z,200.33
2023-03-16T07:16:12.804Z,196.34
2023-03-16T07:17:12.942Z,193.36
2023-03-16T07:18:13.108Z,193.09
2023-03-16T07:19:13.288Z,188.15
2023-03-16T07:20:13.439Z,174.05
2023-03-16T07:21:13.627Z,163.72
2023-03-16T07:22:13.696Z,153.00
2023-03-16T07:23:13.895Z,148.32
2023-03-16T07:24:14.564Z,145.86
2023-03-16T07:25:14.171Z,138.03
2023-03-16T07:26:14.259Z,132.57
2023-03-16T07:27:14.417Z,128.29
2023-03-16T07:28:14.524Z,126.49
2023-03-16T07:29:14.668Z,124.57
2023-03-16T07:30:14.775Z,122.14
2023-03-16T07:31:15.026Z,124.13
2023-03-16T07:32:15.030Z,126.88
2023-03-16T07:33:15.177Z,126.04
2023-03-16T07:34:15.255Z,123.43
2023-03-16T07:35:15.361Z,128.25
2023-03-16T07:36:15.550Z,124.80
2023-03-16T07:37:17.133Z,123.03
2023-03-16T07:38:15.789Z,121.75
2023-03-16T07:39:15.906Z,110.94
2023-03-16T07:40:16.653Z,104.34
2023-03-16T07:41:16.170Z,105.15
2023-03-16T07:42:16.282Z,105.63
2023-03-16T07:43:16.389Z,105.10
2023-03-16T07:44:16.468Z,98.04
2023-03-16T07:45:16.555Z,91.76
2023-03-16T07:46:16.765Z,83.59
2023-03-16T07:47:16.810Z,74.54
2023-03-16T07:48:16.919Z,67.82
2023-03-16T07:49:17.028Z,63.85
2023-03-16T07:50:17.166Z,61.89
2023-03-16T07:52:17.448Z,53.89
2023-03-16T08:12:20.614Z,25.00
2023-03-16T10:24:30.783Z,16.64
2023-03-16T10:25:31.100Z,17.37
2023-03-16T10:26:31.127Z,17.14
2023-03-16T10:27:31.290Z,17.15
2023-03-16T10:28:31.481Z,18.31
2023-03-16T10:29:31.657Z,18.78
2023-03-16T10:30:31.945Z,20.57
2023-03-16T10:31:32.038Z,23.09
2023-03-16T10:32:32.313Z,28.38
2023-03-16T10:33:32.541Z,39.64
2023-03-16T10:34:32.726Z,46.63
2023-03-16T10:35:32.881Z,52.55
2023-03-16T10:36:32.887Z,52.71
2023-03-16T10:37:32.838Z,53.52
2023-03-16T10:38:32.834Z,55.63
2023-03-16T10:39:32.816Z,57.30
2023-03-16T10:40:32.795Z,62.61
2023-03-16T10:41:32.784Z,59.78
2023-03-16T10:42:32.778Z,57.02
2023-03-16T10:43:32.758Z,52.01
2023-03-16T10:44:32.738Z,47.51
2023-03-16T10:45:32.807Z,44.08
2023-03-16T10:46:32.923Z,40.66
2023-03-16T10:47:32.753Z,38.35
2023-03-16T10:48:34.070Z,38.15
2023-03-16T10:49:34.252Z,36.52
2023-03-16T10:50:32.693Z,36.25
2023-03-16T10:51:32.698Z,38.50
2023-03-16T10:52:32.660Z,46.51
2023-03-16T10:53:32.665Z,55.04
2023-03-16T10:54:33.614Z,51.34
2023-03-16T10:55:32.665Z,49.42
2023-03-16T10:56:32.639Z,46.43
2023-03-16T10:57:32.619Z,48.73
2023-03-16T10:58:32.603Z,49.50
2023-03-16T10:59:32.593Z,45.41
2023-03-16T11:00:32.582Z,40.50
2023-03-16T11:01:32.702Z,36.87
2023-03-16T11:02:32.530Z,33.10
2023-03-16T11:03:32.507Z,35.19
2023-03-16T11:04:32.510Z,39.60
2023-03-16T11:05:32.479Z,39.78
2023-03-16T11:06:32.463Z,37.58
2023-03-16T11:07:32.468Z,38.09
2023-03-16T11:08:32.367Z,41.86
2023-03-16T11:09:32.331Z,41.44
2023-03-16T11:10:33.175Z,41.76
2023-03-16T11:11:32.251Z,43.98
2023-03-16T11:12:32.273Z,44.91
2023-03-16T11:13:32.304Z,43.01
2023-03-16T11:14:32.317Z,39.05
2023-03-16T11:15:32.602Z,35.43
2023-03-16T11:16:32.442Z,32.68
2023-03-16T11:17:32.408Z,30.18
2023-03-16T11:18:32.422Z,28.41
2023-03-16T11:19:32.443Z,27.21
2023-03-16T11:20:32.484Z,30.42
2023-03-16T11:21:32.505Z,33.86
2023-03-16T11:22:32.528Z,30.83
2023-03-16T11:23:32.573Z,29.28
2023-03-16T11:24:32.586Z,29.32
2023-03-16T11:25:32.713Z,29.35
2023-03-16T11:26:32.863Z,28.80
2023-03-16T11:27:33.017Z,28.45
2023-03-16T11:28:34.136Z,26.83
2023-03-16T11:29:33.194Z,25.60
2023-03-16T11:30:34.031Z,25.73
2023-03-16T11:31:33.267Z,27.15
2023-03-16T11:32:33.279Z,27.18
2023-03-16T11:33:33.211Z,27.58
2023-03-16T11:34:33.194Z,27.90
2023-03-16T11:35:33.231Z,27.52
2023-03-16T11:36:33.208Z,26.51
2023-03-16T11:37:33.184Z,25.48
2023-03-16T11:38:33.107Z,23.62
2023-03-16T11:39:33.094Z,25.04
2023-03-16T11:40:33.062Z,25.49
2023-03-16T11:41:32.999Z,26.49
2023-03-16T11:42:32.993Z,26.36
2023-03-16T11:43:32.989Z,25.98
2023-03-16T11:44:32.963Z,25.30
2023-03-16T11:46:32.923Z,25.00
2023-03-16T11:47:32.876Z,25.12
2023-03-16T11:48:32.853Z,25.61
2023-03-16T11:49:32.847Z,25.58
2023-03-16T12:17:31.797Z,53.20
2023-03-16T12:19:31.652Z,68.29
2023-03-16T12:20:31.576Z,75.75
2023-03-16T12:21:31.505Z,83.34
2023-03-16T12:22:31.424Z,90.04
2023-03-16T12:23:31.345Z,93.89
2023-03-16T12:24:31.260Z,95.42
2023-03-16T12:25:31.411Z,97.13
2023-03-16T12:26:31.112Z,95.66
2023-03-16T12:27:31.036Z,97.20
2023-03-16T12:28:30.961Z,100.30
2023-03-16T12:29:32.771Z,103.66
2023-03-16T12:30:30.892Z,106.86
2023-03-16T12:31:30.809Z,109.73
2023-03-16T12:32:30.674Z,112.42
2023-03-16T12:57:30.689Z,143.28
2023-03-16T12:58:30.841Z,146.23
2023-03-16T12:59:31.027Z,148.70
2023-03-16T13:00:31.171Z,151.93
2023-03-16T13:01:31.373Z,155.27
2023-03-16T13:02:31.469Z,155.05
2023-03-16T13:03:31.609Z,152.57
2023-03-16T13:04:31.826Z,154.56
2023-03-16T13:05:31.840Z,157.31
2023-03-16T13:07:32.057Z,165.15
2023-03-16T13:08:31.978Z,168.24
2023-03-16T13:09:31.919Z,171.97
2023-03-16T13:10:31.821Z,181.00
2023-03-16T13:11:31.735Z,181.87
2023-03-16T13:12:31.661Z,174.19
2023-03-16T13:13:31.752Z,167.35
2023-03-16T13:14:31.537Z,165.75
2023-03-16T13:15:31.459Z,167.49
2023-03-16T13:16:31.468Z,168.68
2023-03-16T13:17:31.315Z,169.53
2023-03-16T13:18:31.150Z,171.52
2023-03-16T13:19:31.043Z,172.57
2023-03-16T13:20:32.179Z,173.12
2023-03-16T13:21:30.826Z,168.69
2023-03-16T13:22:30.730Z,166.25
2023-03-16T13:23:30.650Z,170.44
2023-03-16T13:32:30.651Z,186.31
2023-03-16T13:33:30.770Z,185.50
2023-03-16T13:34:30.890Z,189.72
2023-03-16T13:35:31.039Z,191.33
2023-03-16T13:36:31.133Z,192.04
2023-03-16T13:37:31.268Z,193.04
2023-03-16T13:40:31.569Z,187.49
2023-03-16T13:46:31.714Z,185.80
2023-03-16T13:47:31.606Z,180.27
2023-03-16T13:48:31.536Z,180.64
2023-03-16T13:49:31.466Z,179.96
2023-03-16T13:50:31.554Z,180.72
2023-03-16T13:51:31.288Z,180.20
2023-03-16T13:52:31.220Z,178.02
2023-03-16T13:53:31.143Z,179.83
2023-03-16T13:54:31.358Z,180.06
2023-03-16T13:55:31.463Z,181.66
2023-03-16T13:56:31.620Z,186.13
2023-03-16T13:57:31.747Z,188.95
2023-03-16T13:58:33.657Z,186.52
2023-03-16T13:59:31.756Z,184.51
2023-03-16T14:00:31.722Z,183.80
2023-03-16T14:01:31.541Z,186.41
2023-03-16T14:02:31.388Z,187.50
2023-03-16T14:03:31.212Z,190.91
2023-03-16T14:04:31.079Z,190.51
2023-03-16T14:05:31.338Z,190.80
2023-03-16T14:06:30.830Z,188.18
2023-03-16T14:07:30.668Z,188.34
2023-03-16T15:11:30.704Z,213.81
2023-03-16T15:12:30.857Z,215.25
2023-03-16T15:13:30.982Z,215.68
2023-03-16T15:14:31.138Z,216.77
2023-03-16T15:15:31.274Z,219.57
2023-03-16T15:16:31.474Z,218.69
2023-03-16T15:17:31.580Z,215.62
2023-03-16T15:18:31.723Z,212.10
2023-03-16T15:19:31.888Z,209.67
2023-03-16T15:21:32.163Z,214.30
2023-03-16T15:22:32.376Z,215.77
2023-03-16T16:17:53.474Z,220.39
2023-03-16T16:19:40.648Z,222.28
2023-03-16T18:37:40.817Z,231.94
2023-03-16T18:38:41.032Z,229.97
2023-03-16T18:39:41.235Z,229.69
2023-03-16T18:40:41.518Z,232.01
2023-03-16T18:41:41.646Z,232.64
2023-03-16T18:42:41.856Z,234.38
2023-03-16T18:43:42.065Z,233.06
2023-03-16T19:26:50.706Z,235.02
2023-03-16T19:27:51.006Z,235.64
2023-03-16T19:28:51.098Z,236.91
2023-03-16T19:29:52.351Z,238.50
2023-03-16T19:30:51.394Z,239.97
2023-03-16T19:31:51.497Z,239.42
2023-03-16T19:32:51.458Z,238.46
2023-03-16T19:33:51.390Z,236.12
2023-03-16T19:34:51.481Z,235.92
2023-03-16T19:35:52.576Z,235.73
2023-03-16T19:36:51.510Z,237.55
2023-03-16T19:37:51.554Z,239.62
2023-03-16T19:38:51.667Z,239.68
2023-03-16T19:39:51.763Z,237.47
2023-03-16T19:40:51.865Z,236.92
2023-03-16T19:41:51.976Z,237.35
2023-03-16T20:48:00.715Z,238.25
2023-03-16T20:49:00.945Z,238.99
2023-03-16T20:50:01.195Z,239.27
2023-03-16T20:51:01.457Z,239.36
2023-03-16T20:52:01.667Z,242.21
2023-03-16T20:53:01.911Z,244.95
2023-03-16T20:54:02.146Z,245.75
2023-03-16T20:55:02.378Z,245.07
2023-03-16T20:56:02.612Z,243.32
2023-03-16T20:57:02.854Z,243.21
2023-03-16T20:58:03.091Z,243.25
2023-03-16T20:59:03.330Z,242.86
2023-03-16T21:00:03.566Z,242.18
2023-03-16T21:01:03.936Z,243.26
2023-03-16T21:02:03.988Z,244.50
2023-03-16T21:03:04.138Z,245.37
2023-03-16T21:04:04.399Z,247.24
2023-03-16T21:05:04.613Z,249.48
2023-03-16T21:06:04.802Z,249.97
2023-03-16T21:09:05.416Z,247.81
2023-03-16T22:24:21.080Z,228.55
2023-03-16T22:25:21.190Z,230.34
2023-03-16T22:26:21.430Z,233.00
2023-03-16T22:27:21.581Z,231.32
2023-03-16T22:28:21.703Z,229.74
2023-03-16T22:29:21.919Z,229.31
2023-03-16T22:30:22.135Z,228.85
2023-03-16T22:31:22.447Z,229.27
2023-03-16T22:32:22.524Z,228.08
2023-03-16T22:33:22.795Z,221.18
2023-03-16T22:34:22.977Z,218.64
2023-03-16T22:35:23.178Z,219.78
2023-03-16T22:36:23.385Z,219.89
2023-03-16T22:37:23.479Z,221.19
2023-03-16T22:38:23.678Z,221.79
2023-03-16T22:39:23.900Z,221.72
2023-03-16T22:40:24.085Z,218.94
2023-03-16T22:41:24.272Z,216.02
2023-03-16T22:42:24.503Z,216.09
2023-03-16T22:43:24.794Z,215.79
2023-03-16T22:44:25.017Z,215.41
2023-03-16T22:45:25.212Z,215.54
2023-03-16T22:46:25.347Z,214.69
2023-03-16T22:47:25.642Z,213.27
2023-03-16T22:48:25.760Z,211.78
2023-03-16T22:49:26.030Z,212.40
2023-03-16T22:50:26.185Z,213.61
2023-03-16T22:51:26.351Z,210.81
2023-03-16T22:52:26.531Z,211.93
2023-03-16T22:53:26.813Z,212.83
2023-03-16T22:54:27.021Z,212.02
2023-03-16T22:55:27.431Z,212.53
2023-03-16T22:56:27.349Z,211.70
2023-03-16T22:57:27.406Z,211.21
2023-03-16T22:58:27.501Z,211.95
2023-03-16T22:59:27.558Z,212.40
2023-03-16T23:00:27.627Z,213.44
2023-03-16T23:01:27.745Z,211.71
2023-03-16T23:02:27.745Z,210.77
2023-03-16T23:03:27.811Z,211.83
2023-03-16T23:04:27.946Z,212.22
2023-03-16T23:06:28.019Z,210.29
2023-03-16T23:07:28.107Z,205.92
2023-03-16T23:08:28.207Z,202.21
2023-03-16T23:22:30.719Z,135.09
2023-03-16T23:23:30.996Z,129.59
2023-03-16T23:24:31.225Z,124.40
2023-03-16T23:25:31.472Z,121.87
2023-03-16T23:26:31.708Z,135.32
2023-03-16T23:27:31.797Z,152.24
2023-03-16T23:28:32.097Z,164.34
2023-03-16T23:29:32.261Z,173.92
2023-03-16T23:30:33.013Z,180.19
2023-03-16T23:31:32.627Z,185.39
2023-03-16T23:32:32.745Z,188.43
2023-03-16T23:33:32.792Z,192.61
2023-03-16T23:34:32.890Z,196.03
2023-03-16T23:35:33.037Z,196.62
2023-03-16T23:36:33.005Z,198.25
2023-03-16T23:37:33.052Z,197.42
2023-03-16T23:38:33.097Z,197.86
2023-03-16T23:39:33.189Z,197.40
2023-03-16T23:40:33.282Z,199.05
2023-03-16T23:41:33.369Z,200.69
2023-03-16T23:42:33.443Z,200.89
2023-03-16T23:43:33.502Z,201.41
2023-03-16T23:44:33.565Z,202.07
2023-03-16T23:45:33.628Z,196.87
2023-03-16T23:46:33.675Z,193.78
2023-03-16T23:47:33.727Z,189.77
2023-03-16T23:48:33.828Z,187.28
2023-03-16T23:49:33.904Z,188.79
2023-03-16T23:50:33.997Z,185.08
2023-03-16T23:51:34.074Z,177.31
2023-03-16T23:52:34.165Z,171.74
2023-03-16T23:53:34.261Z,172.81
2023-03-16T23:54:34.350Z,180.19
2023-03-16T23:55:34.455Z,183.84
2023-03-16T23:56:34.545Z,190.00
2023-03-16T23:57:34.632Z,194.07
2023-03-16T23:58:34.730Z,197.98
2023-03-16T23:59:34.807Z,200.02
